Kezdőlap
METAR-TAF:

METAR-TAF

Repülőterek :

Hillsboro, Texas, Amerikai Egyesült Államok

földrajzi szélesség: 32-05N, földrajzi hosszúság: 097-05-50W, magasság: 209 m

Jelenlegi meteorológiai megfigyelések

A jelentés 37 perccel ezelõtt készült, 19:40 UTC
Délkeleti szél 7 kt széllökések: 15 kt, kelet-délkeleti és déli között változik
Hőmérséklet 35°C
Páratartalom 44%
Légköri nyomás 1013 hPa
Látótávolság: 16.1 km
Szórványos felhőzet 5000 lábon

METAR: KINJ 151940Z AUTO 13007G15KT 120V180 10SM SCT050 35/21 A2990 RMK AO2 T03450211

Idő: 15:17 (20:17 UTC)


TAF: hiányzik

Meteorológiai megfigyelések és előrejelzések több, mint 4000 repülőtéren (METAR és TAF jelentéseket).

A térképen piros és sárga pontok jelzik az elérhető meteorológiai állomásokat.

Mozgassa az egeret a pont fölött, hogy megjelenjen az állomás neve.

Azután kattintson az időjárási megfigyelések és előrejelzések megtekintéséhez.

A térkép megváltoztatása: kattintson a fekete keresztel jelölt zöld gombra ráközelítéshez, a vonallal jelölt zöld gombra távolításhoz, vagy a zöld nyilakra a szomszédos térképek eléréséhez.


METAR-TAF: